Tropical Cyclones
[Index]
Main Index Home Page Stock Weather Photos Extreme Storms Discussion Storm News and Storm Chasing Reports Tropical Cyclones / Hurricanes / Typhoons Weather Data and Links Wild Fires / Bushfires Weather Observation Techniques Weather Picture Catalogue Tornado Pictures and Reports Stock Video Footage and DVDs for sale
Season 1984-1985 Tropical Cyclone DITRA Track Map
Season 1984-1985 Summaries: [BoM-AU] [JTWC-AU] [JTWC-SIO] [JTWC-SPAC] [JTWC-SH]
<<- Previous TC | JTWC 1984-1985 Season | Next TC ->>

click for intensity scale information  Lat/long Grid: Show Hide

 Date Labels: Show Hide

Joint Typhoon Warning Centre Cyclone Data

Name: DITRA

24 Jan 1985 12:00 UTC to 30 Jan 1985 12:00 UTC

    date/time    lat    long     hPa   cat  kts
1985-01-24 12   14.9   156.6W                 25          
1985-01-24 18   15.3   156.9W                 30          
1985-01-25 00   15.8   157.3W                 30          
1985-01-25 06   16.2   157.8W                 30          
1985-01-25 12   16.7   158.3W                 30          
1985-01-25 18   17.1   158.9W                 35          
1985-01-26 00   17.6   159.7W                 35          
1985-01-26 06   18.4   160.6W                 35          
1985-01-26 12   19.3   161.6W                 35          
1985-01-26 18   19.9   162.6W                 35          
1985-01-27 00   20.6   163.7W                 35          
1985-01-27 06   21.3   164.8W           1     40          
1985-01-27 12   22.0   165.9W           1     45          
1985-01-27 18   22.8   167.1W           1     50          
1985-01-28 00   23.7   168.3W           2     60          
1985-01-28 06   24.6   169.5W           2     65          
1985-01-28 12   25.7   170.8W           3     75          
1985-01-28 18   27.0   171.7W           3     80          
1985-01-29 00   28.4   172.4W           3     75          
1985-01-29 06   29.6   172.7W           2     70          
1985-01-29 12   30.8   172.2W           2     65          
1985-01-29 18   32.4   170.6W           2     60          
1985-01-30 00   34.1   167.9W           1     50          
1985-01-30 06   35.3   164.6W           1     45          
1985-01-30 12   36.1   160.5W                 35          
Winds are 1-min average.

Tropical cyclone tracks developed by Michael Bath using data from the Joint Typhoon Warning Centre Best Tracks and Google Maps.


[Australian Severe Weather index] [Copyright Notice] [Email Contacts] [Search This Site] [Privacy Policy]
Document: tropical_cyclone_ditra.htm Updated: 18 September 2016